Time;durP1;ratioP1;P1;durP2;ratioP2;P2;SDS_P1;SDS_P2;PMS_P1;PMS_P2;Temp;Humidity;BMP_temperature;BMP_pressure;BME280_temperature;BME280_humidity;BME280_pressure;Samples;Min_cycle;Max_cycle;Signal;HPM_P1;HPM_P2
2024/01/17 00:00:42;;;;;;;11.25;5.70;;;-0.80;99.90;;;;;;6123873;23;20010;-78
2024/01/17 00:03:07;;;;;;;14.55;11.00;;;-0.80;99.90;;;;;;6123957;23;20016;-78
2024/01/17 00:05:34;;;;;;;9.20;5.10;;;-0.80;99.90;;;;;;6099597;23;20451;-78
2024/01/17 00:08:00;;;;;;;6.80;5.10;;;-0.70;99.90;;;;;;6099727;23;20010;-78
2024/01/17 00:10:25;;;;;;;12.82;6.38;;;-0.80;99.90;;;;;;6099863;23;20008;-78
2024/01/17 00:12:51;;;;;;;17.10;11.95;;;-0.80;99.90;;;;;;6124092;23;20481;-78
2024/01/17 00:15:19;;;;;;;12.32;6.43;;;-0.80;99.90;;;;;;6099633;23;20014;-78
2024/01/17 00:17:46;;;;;;;18.35;13.43;;;-0.80;99.90;;;;;;6098388;23;20017;-78
2024/01/17 00:20:12;;;;;;;12.82;6.28;;;-0.80;99.90;;;;;;6123619;23;20010;-78
2024/01/17 00:22:38;;;;;;;12.65;6.53;;;-0.90;99.90;;;;;;6099555;23;20066;-78
2024/01/17 00:25:05;;;;;;;12.05;6.60;;;-0.90;99.90;;;;;;6123921;23;20447;-78
2024/01/17 00:27:31;;;;;;;16.60;14.32;;;-0.90;99.90;;;;;;6099094;23;20010;-78
2024/01/17 00:29:57;;;;;;;10.88;6.97;;;-0.90;99.90;;;;;;6098978;23;20037;-78
2024/01/17 00:32:26;;;;;;;10.95;6.63;;;-0.90;99.90;;;;;;6098336;23;20024;-78
2024/01/17 00:34:52;;;;;;;17.60;15.05;;;-0.90;99.90;;;;;;6122844;23;20346;-78
2024/01/17 00:37:18;;;;;;;12.82;7.82;;;-0.90;99.90;;;;;;6098802;23;20097;-78
2024/01/17 00:39:43;;;;;;;20.05;15.65;;;-1.00;99.90;;;;;;6123656;23;20041;-78
2024/01/17 00:42:09;;;;;;;10.93;6.60;;;-1.00;99.90;;;;;;6098867;23;20010;-78
2024/01/17 00:44:38;;;;;;;11.35;7.00;;;-1.00;99.90;;;;;;6122872;23;20014;-78
2024/01/17 00:47:04;;;;;;;10.77;6.97;;;-1.10;99.90;;;;;;6099249;23;20358;-78
2024/01/17 00:49:30;;;;;;;11.35;7.90;;;-1.20;99.90;;;;;;6099337;23;20041;-77
2024/01/17 00:51:55;;;;;;;13.65;7.47;;;-1.20;99.90;;;;;;6100476;23;20018;-78
2024/01/17 00:54:21;;;;;;;18.27;16.48;;;-1.20;99.90;;;;;;6099669;23;20018;-78
2024/01/17 00:56:46;;;;;;;11.27;7.70;;;-1.20;99.90;;;;;;6124507;23;20089;-78
2024/01/17 00:59:12;;;;;;;14.77;7.97;;;-1.30;99.90;;;;;;6100416;23;20065;-78
2024/01/17 01:01:37;;;;;;;19.13;17.13;;;-1.30;99.90;;;;;;6100206;23;20012;-78
2024/01/17 01:04:03;;;;;;;15.63;9.38;;;-1.30;99.90;;;;;;6123893;23;20021;-78
2024/01/17 01:06:29;;;;;;;13.32;7.93;;;-1.30;99.90;;;;;;6099973;23;20104;-78
2024/01/17 01:08:54;;;;;;;12.73;7.72;;;-1.30;99.90;;;;;;6099996;23;20021;-78
2024/01/17 01:11:20;;;;;;;12.93;8.15;;;-1.30;99.90;;;;;;6100252;23;20033;-77
2024/01/17 01:13:45;;;;;;;15.00;8.75;;;-1.40;99.90;;;;;;6099664;23;20097;-78
2024/01/17 01:16:11;;;;;;;12.30;7.70;;;-1.40;99.90;;;;;;6099686;23;20065;-77
2024/01/17 01:18:37;;;;;;;20.35;17.65;;;-1.40;99.90;;;;;;6099797;23;20009;-77
2024/01/17 01:21:02;;;;;;;13.02;8.20;;;-1.30;99.90;;;;;;6124437;23;20014;-77
2024/01/17 01:23:29;;;;;;;11.30;7.85;;;-1.30;99.90;;;;;;6123967;23;20021;-78
2024/01/17 01:25:54;;;;;;;12.35;8.73;;;-1.30;99.90;;;;;;6099526;23;20093;-77
2024/01/17 01:28:20;;;;;;;12.55;8.48;;;-1.30;99.90;;;;;;6124026;23;20100;-78
2024/01/17 01:30:46;;;;;;;13.85;8.38;;;-1.30;99.90;;;;;;6099921;23;20022;-77
2024/01/17 01:33:11;;;;;;;12.80;9.00;;;-1.30;99.90;;;;;;6123951;23;20301;-77
2024/01/17 01:35:37;;;;;;;11.50;8.40;;;-1.20;99.90;;;;;;6099583;23;20097;-77
2024/01/17 01:38:02;;;;;;;19.02;10.00;;;-1.20;99.90;;;;;;6124173;23;20028;-77
2024/01/17 01:40:28;;;;;;;13.10;8.63;;;-1.20;99.90;;;;;;6100199;23;20021;-78
2024/01/17 01:42:57;;;;;;;14.07;8.95;;;-1.20;99.90;;;;;;6123912;23;20069;-77
2024/01/17 01:45:22;;;;;;;23.30;20.98;;;-1.10;99.90;;;;;;6124200;23;20040;-77
2024/01/17 01:47:48;;;;;;;15.18;10.73;;;-1.10;99.90;;;;;;6124006;23;20088;-77
2024/01/17 01:50:14;;;;;;;21.60;10.40;;;-1.10;99.90;;;;;;6124069;23;20450;-78
2024/01/17 01:52:44;;;;;;;23.00;20.70;;;-1.10;99.90;;;;;;6099417;23;20022;-78
2024/01/17 01:55:10;;;;;;;15.18;9.90;;;-1.10;99.90;;;;;;6123548;23;20477;-77
2024/01/17 01:57:38;;;;;;;15.32;9.32;;;-1.10;99.90;;;;;;6099715;23;20014;-77
2024/01/17 02:00:04;;;;;;;20.67;10.40;;;-1.10;99.90;;;;;;6099620;23;20077;-77
2024/01/17 02:02:32;;;;;;;17.58;10.63;;;-1.10;99.90;;;;;;6099059;23;20046;-77
2024/01/17 02:04:58;;;;;;;15.70;9.43;;;-1.10;99.90;;;;;;6099027;23;20053;-77
2024/01/17 02:07:27;;;;;;;16.20;9.65;;;-1.20;99.90;;;;;;6099227;23;20021;-77
2024/01/17 02:09:53;;;;;;;15.48;10.77;;;-1.10;99.90;;;;;;6099361;23;20013;-77
2024/01/17 02:12:19;;;;;;;13.43;10.18;;;-1.10;99.90;;;;;;6123839;23;20114;-78
2024/01/17 02:14:44;;;;;;;12.82;9.70;;;-1.10;99.90;;;;;;6123302;23;20006;-78
2024/01/17 02:17:10;;;;;;;13.32;8.88;;;-1.20;99.90;;;;;;6099265;23;20010;-77
2024/01/17 02:19:40;;;;;;;25.95;23.20;;;-1.20;99.90;;;;;;6123829;23;20061;-77
2024/01/17 02:22:05;;;;;;;19.95;11.73;;;-1.20;99.90;;;;;;6099290;23;20041;-77
2024/01/17 02:24:31;;;;;;;17.38;10.02;;;-1.20;99.90;;;;;;6123058;23;20018;-77
2024/01/17 02:26:59;;;;;;;27.20;24.40;;;-1.20;99.90;;;;;;6098780;23;20014;-77
2024/01/17 02:29:26;;;;;;;20.25;11.98;;;-1.20;99.90;;;;;;6123641;23;20021;-77
2024/01/17 02:31:52;;;;;;;18.85;11.43;;;-1.20;99.90;;;;;;6099250;23;20041;-77
2024/01/17 02:34:17;;;;;;;13.60;9.40;;;-1.30;99.90;;;;;;6122982;23;20006;-77
2024/01/17 02:36:43;;;;;;;14.35;10.40;;;-1.30;99.90;;;;;;6123459;23;20061;-77
2024/01/17 02:39:10;;;;;;;17.25;10.85;;;-1.20;99.90;;;;;;6099225;23;20320;-77
2024/01/17 02:41:35;;;;;;;15.73;10.02;;;-1.30;99.90;;;;;;6099075;23;20010;-77
2024/01/17 02:44:01;;;;;;;17.40;10.80;;;-1.30;99.90;;;;;;6122796;23;20033;-77
2024/01/17 02:46:28;;;;;;;17.33;10.48;;;-1.20;99.90;;;;;;6099003;23;20036;-77
2024/01/17 02:48:53;;;;;;;26.90;24.00;;;-1.20;99.90;;;;;;6123340;23;20053;-77
2024/01/17 02:51:19;;;;;;;16.30;11.05;;;-1.20;99.90;;;;;;6123506;23;20025;-77
2024/01/17 02:53:45;;;;;;;15.88;10.85;;;-1.20;99.90;;;;;;6122932;23;20006;-77
2024/01/17 02:56:11;;;;;;;19.50;11.27;;;-1.30;99.90;;;;;;6098774;23;20020;-77
2024/01/17 02:58:36;;;;;;;28.77;25.80;;;-1.30;99.90;;;;;;6123288;23;20010;-77
2024/01/17 03:01:02;;;;;;;23.15;12.43;;;-1.30;99.90;;;;;;6123268;23;20017;-77
2024/01/17 03:03:29;;;;;;;16.70;10.77;;;-1.40;99.90;;;;;;6098598;23;20020;-77
2024/01/17 03:05:55;;;;;;;17.00;11.15;;;-1.40;99.90;;;;;;6098549;23;20346;-77
2024/01/17 03:08:21;;;;;;;17.98;11.07;;;-1.40;99.90;;;;;;6098764;23;20394;-77
2024/01/17 03:10:46;;;;;;;21.73;11.38;;;-1.50;99.90;;;;;;6098858;23;20018;-77
2024/01/17 03:13:14;;;;;;;26.75;24.02;;;-1.50;99.90;;;;;;6098513;23;20068;-77
2024/01/17 03:15:39;;;;;;;15.25;11.40;;;-1.50;99.90;;;;;;6122820;23;20018;-77
2024/01/17 03:18:08;;;;;;;18.50;9.55;;;-1.50;99.90;;;;;;6099007;23;20025;-77
2024/01/17 03:20:34;;;;;;;18.75;10.75;;;-1.50;99.90;;;;;;6098883;23;20080;-77
2024/01/17 03:22:59;;;;;;;18.63;11.38;;;-1.50;99.90;;;;;;6098558;23;20446;-77
2024/01/17 03:25:25;;;;;;;27.30;24.35;;;-1.50;99.90;;;;;;6122879;23;20013;-77
2024/01/17 03:27:51;;;;;;;20.08;11.80;;;-1.50;99.90;;;;;;6098132;23;20451;-77
2024/01/17 03:30:17;;;;;;;19.90;11.02;;;-1.50;99.90;;;;;;6098769;23;20094;-77
2024/01/17 03:32:42;;;;;;;28.05;25.15;;;-1.50;99.90;;;;;;6098485;23;20093;-77
2024/01/17 03:35:09;;;;;;;18.20;11.50;;;-1.50;99.90;;;;;;6122634;23;20017;-77
2024/01/17 03:37:36;;;;;;;15.88;11.13;;;-1.40;99.90;;;;;;6123075;23;20469;-77
2024/01/17 03:40:02;;;;;;;17.65;12.25;;;-1.40;99.90;;;;;;6098743;23;20104;-78
2024/01/17 03:42:27;;;;;;;14.52;10.88;;;-1.40;99.90;;;;;;6098444;23;20526;-77
2024/01/17 03:44:53;;;;;;;20.65;11.45;;;-1.40;99.90;;;;;;6097994;23;20025;-77
2024/01/17 03:47:18;;;;;;;19.98;10.43;;;-1.40;99.90;;;;;;6098511;23;20362;-77
2024/01/17 03:49:44;;;;;;;17.40;11.88;;;-1.40;99.90;;;;;;6098715;23;20327;-77
2024/01/17 03:52:09;;;;;;;26.60;24.00;;;-1.40;99.90;;;;;;6122721;23;20009;-77
2024/01/17 03:54:38;;;;;;;16.35;10.68;;;-1.40;99.90;;;;;;6097914;23;20069;-77
2024/01/17 03:57:04;;;;;;;16.75;11.18;;;-1.40;99.90;;;;;;6122761;23;20017;-77
2024/01/17 03:59:30;;;;;;;18.15;10.88;;;-1.40;99.90;;;;;;6098366;23;20010;-77
2024/01/17 04:01:56;;;;;;;17.85;11.75;;;-1.40;99.90;;;;;;6122874;23;20006;-77
2024/01/17 04:04:21;;;;;;;27.17;24.48;;;-1.40;99.90;;;;;;6097795;23;20018;-77
2024/01/17 04:06:47;;;;;;;19.02;11.38;;;-1.40;99.90;;;;;;6122674;23;20024;-77
2024/01/17 04:09:12;;;;;;;17.40;10.50;;;-1.30;99.90;;;;;;6122948;23;20018;-77
2024/01/17 04:11:38;;;;;;;18.42;10.32;;;-1.40;99.90;;;;;;6122835;23;20014;-77
2024/01/17 04:14:04;;;;;;;17.38;10.27;;;-1.40;99.90;;;;;;6097800;23;20013;-77
2024/01/17 04:16:29;;;;;;;25.58;23.08;;;-1.40;99.90;;;;;;6098370;23;20093;-77
2024/01/17 04:18:55;;;;;;;12.45;9.65;;;-1.40;99.90;;;;;;6098591;23;20450;-77
2024/01/17 04:21:20;;;;;;;13.57;10.27;;;-1.40;99.90;;;;;;6122961;23;20328;-77
2024/01/17 04:23:49;;;;;;;12.30;9.50;;;-1.40;99.90;;;;;;6098151;23;20475;-77
2024/01/17 04:26:25;;;;;;;16.70;10.73;;;-1.40;99.90;;;;;;6123687;23;20018;-77
2024/01/17 04:28:52;;;;;;;16.48;10.15;;;-1.40;99.90;;;;;;6124788;23;20017;-77
2024/01/17 04:31:33;;;;;;;25.52;23.08;;;-1.40;99.90;;;;;;6124823;23;20355;-77
2024/01/17 04:34:02;;;;;;;17.75;10.48;;;-1.40;99.90;;;;;;6123977;23;20009;-77
2024/01/17 04:36:29;;;;;;;16.23;10.88;;;-1.40;99.90;;;;;;6124592;23;20462;-77
2024/01/17 04:38:54;;;;;;;21.00;10.32;;;-1.40;99.90;;;;;;6124641;23;20067;-77
2024/01/17 04:41:20;;;;;;;14.27;9.98;;;-1.40;99.90;;;;;;6124696;23;20014;-77
2024/01/17 04:43:46;;;;;;;16.52;10.57;;;-1.40;99.90;;;;;;6124241;23;20013;-77
2024/01/17 04:46:13;;;;;;;18.60;10.90;;;-1.40;99.90;;;;;;6124276;23;20057;-77
2024/01/17 04:48:43;;;;;;;15.43;10.13;;;-1.40;99.90;;;;;;6100142;23;20013;-77
2024/01/17 04:51:10;;;;;;;25.58;23.13;;;-1.40;99.90;;;;;;6124628;23;20368;-77
2024/01/17 04:53:42;;;;;;;14.70;9.63;;;-1.40;99.90;;;;;;6099677;23;20017;-77
2024/01/17 04:56:09;;;;;;;15.75;10.32;;;-1.40;99.90;;;;;;6124194;23;20018;-77
2024/01/17 04:58:36;;;;;;;23.17;20.88;;;-1.40;99.90;;;;;;6100070;23;20089;-77
2024/01/17 05:01:02;;;;;;;17.75;10.52;;;-1.40;99.90;;;;;;6124669;23;20073;-77
2024/01/17 05:03:27;;;;;;;19.27;9.30;;;-1.40;99.90;;;;;;6099918;23;20018;-77
2024/01/17 05:05:54;;;;;;;14.25;9.43;;;-1.40;99.90;;;;;;6124210;23;20052;-77
2024/01/17 05:08:19;;;;;;;23.23;21.10;;;-1.40;99.90;;;;;;6100059;23;20060;-77
2024/01/17 05:10:45;;;;;;;17.95;9.45;;;-1.40;99.90;;;;;;6124447;23;20049;-77
2024/01/17 05:13:12;;;;;;;14.73;9.85;;;-1.40;99.90;;;;;;6123800;23;20013;-77
2024/01/17 05:15:39;;;;;;;17.63;10.05;;;-1.50;99.90;;;;;;6099760;23;20045;-77
2024/01/17 05:18:05;;;;;;;14.65;9.60;;;-1.40;99.90;;;;;;6124350;23;20013;-77
2024/01/17 05:20:31;;;;;;;16.77;10.70;;;-1.50;99.90;;;;;;6124385;23;20513;-77
2024/01/17 05:22:57;;;;;;;13.80;9.85;;;-1.50;99.90;;;;;;6099460;23;20021;-77
2024/01/17 05:25:22;;;;;;;13.48;9.45;;;-1.50;99.90;;;;;;6123782;23;20014;-77
2024/01/17 05:27:51;;;;;;;15.90;9.82;;;-1.50;99.90;;;;;;6099811;23;20014;-77
2024/01/17 05:30:18;;;;;;;16.38;10.43;;;-1.60;99.90;;;;;;6099841;23;20018;-77
2024/01/17 05:32:44;;;;;;;17.77;10.73;;;-1.60;99.90;;;;;;6099703;23;20009;-76
2024/01/17 05:35:10;;;;;;;14.90;9.70;;;-1.60;99.90;;;;;;6123436;23;20093;-77
2024/01/17 05:37:38;;;;;;;18.75;9.63;;;-1.60;99.90;;;;;;6098819;23;20382;-77
2024/01/17 05:40:04;;;;;;;23.58;21.27;;;-1.70;99.90;;;;;;6124079;23;20060;-77
2024/01/17 05:42:30;;;;;;;17.27;10.27;;;-1.70;99.90;;;;;;6124003;23;20010;-77
2024/01/17 05:44:56;;;;;;;16.55;9.40;;;-1.70;99.90;;;;;;6123387;23;20013;-77
2024/01/17 05:47:21;;;;;;;15.07;9.73;;;-1.80;99.90;;;;;;6124023;23;20605;-77
2024/01/17 05:49:47;;;;;;;13.85;8.77;;;-1.80;99.90;;;;;;6124041;23;20014;-77
2024/01/17 05:52:12;;;;;;;16.38;9.93;;;-1.90;99.90;;;;;;6124130;23;20014;-77
2024/01/17 05:54:38;;;;;;;13.07;9.13;;;-1.90;99.90;;;;;;6098868;23;20006;-77
2024/01/17 05:57:04;;;;;;;15.32;8.65;;;-2.00;99.90;;;;;;6099529;23;20077;-77
2024/01/17 05:59:30;;;;;;;15.40;9.25;;;-2.00;99.90;;;;;;6124056;23;20014;-77
2024/01/17 06:01:55;;;;;;;17.45;10.20;;;-2.10;99.90;;;;;;6098733;23;20045;-77
2024/01/17 06:04:21;;;;;;;15.50;9.70;;;-2.10;99.90;;;;;;6098967;23;20024;-77
2024/01/17 06:06:46;;;;;;;16.27;9.73;;;-2.20;99.90;;;;;;6099374;23;20037;-77
2024/01/17 06:09:13;;;;;;;15.15;9.70;;;-2.20;99.90;;;;;;6099466;23;20018;-77
2024/01/17 06:11:39;;;;;;;13.98;9.60;;;-2.30;99.90;;;;;;6121748;23;20403;-77
2024/01/17 06:14:04;;;;;;;15.70;8.90;;;-2.30;99.90;;;;;;6121716;23;20102;-77
2024/01/17 06:16:30;;;;;;;14.65;9.45;;;-2.40;99.90;;;;;;6123883;23;20041;-77
2024/01/17 06:18:59;;;;;;;16.70;10.05;;;-2.40;99.90;;;;;;6099307;23;20010;-77
2024/01/17 06:21:25;;;;;;;15.13;9.43;;;-2.40;99.90;;;;;;6123342;23;20014;-77
2024/01/17 06:23:51;;;;;;;14.20;9.15;;;-2.40;99.90;;;;;;6123198;23;20073;-77
2024/01/17 06:26:17;;;;;;;16.90;9.13;;;-2.40;99.90;;;;;;6123686;23;20017;-77
2024/01/17 06:28:42;;;;;;;15.90;8.98;;;-2.40;99.90;;;;;;6099092;23;20343;-77
2024/01/17 06:31:09;;;;;;;15.25;9.25;;;-2.50;99.90;;;;;;6098751;23;20121;-77
2024/01/17 06:33:34;;;;;;;13.73;9.43;;;-2.50;99.90;;;;;;6098650;23;20451;-77
2024/01/17 06:36:00;;;;;;;13.70;9.15;;;-2.50;99.90;;;;;;6098546;23;20078;-77
2024/01/17 06:38:25;;;;;;;13.57;8.63;;;-2.50;99.90;;;;;;6123308;23;20093;-77
2024/01/17 06:40:51;;;;;;;13.65;8.52;;;-2.50;99.90;;;;;;6123136;23;20451;-77
2024/01/17 06:43:17;;;;;;;13.52;9.13;;;-2.60;99.90;;;;;;6123181;23;20010;-77
2024/01/17 06:45:42;;;;;;;14.73;9.45;;;-2.60;99.90;;;;;;6098865;23;20021;-77
2024/01/17 06:48:08;;;;;;;13.55;9.23;;;-2.50;99.90;;;;;;6098840;23;20010;-77
2024/01/17 06:50:34;;;;;;;15.60;9.30;;;-2.50;99.90;;;;;;6098086;23;20078;-77
2024/01/17 06:52:59;;;;;;;13.10;9.07;;;-2.50;99.90;;;;;;6098737;23;20013;-77
2024/01/17 06:55:25;;;;;;;23.77;8.60;;;-2.50;99.90;;;;;;6123598;23;20092;-77
2024/01/17 06:57:51;;;;;;;14.95;9.80;;;-2.50;99.90;;;;;;6123294;23;20098;-77
2024/01/17 07:00:17;;;;;;;15.70;9.38;;;-2.50;99.90;;;;;;6122403;23;20021;-77
2024/01/17 07:02:43;;;;;;;14.90;9.27;;;-2.50;99.90;;;;;;6122700;23;20451;-77
2024/01/17 07:05:09;;;;;;;15.98;8.80;;;-2.50;99.90;;;;;;6098511;23;20018;-77
2024/01/17 07:07:34;;;;;;;12.65;8.80;;;-2.50;99.90;;;;;;6123068;23;20022;-77
2024/01/17 07:10:00;;;;;;;14.23;9.63;;;-2.50;99.90;;;;;;6123114;23;20020;-77
2024/01/17 07:12:25;;;;;;;14.77;8.40;;;-2.50;99.90;;;;;;6123586;23;20383;-77
2024/01/17 07:14:54;;;;;;;13.10;8.60;;;-2.60;99.90;;;;;;6098548;23;20443;-77
2024/01/17 07:17:19;;;;;;;12.77;7.63;;;-2.60;99.90;;;;;;6123100;23;20021;-77
2024/01/17 07:19:45;;;;;;;14.30;8.25;;;-2.60;99.90;;;;;;6098270;23;20131;-77
2024/01/17 07:22:13;;;;;;;11.77;7.88;;;-2.60;99.90;;;;;;6123005;23;20338;-77
2024/01/17 07:24:38;;;;;;;13.75;9.27;;;-2.70;99.90;;;;;;6098540;23;20025;-77
2024/01/17 07:27:04;;;;;;;16.35;8.15;;;-2.60;99.90;;;;;;6124775;23;20014;-79
2024/01/17 07:29:30;;;;;;;15.68;8.18;;;-2.70;99.90;;;;;;6124449;23;20017;-78
2024/01/17 07:31:56;;;;;;;11.88;7.85;;;-2.70;99.90;;;;;;6124014;23;20013;-78
2024/01/17 07:34:22;;;;;;;14.25;8.55;;;-2.70;99.90;;;;;;6123940;23;20016;-79
2024/01/17 07:36:48;;;;;;;12.75;8.80;;;-2.80;99.90;;;;;;6125177;23;20071;-79
2024/01/17 07:39:14;;;;;;;14.38;8.75;;;-2.70;99.90;;;;;;6100889;23;20475;-79
2024/01/17 07:41:40;;;;;;;10.23;7.38;;;-2.80;99.90;;;;;;6125579;23;20014;-79
2024/01/17 07:44:06;;;;;;;13.30;8.65;;;-2.70;99.90;;;;;;6125615;23;20010;-79
2024/01/17 07:46:32;;;;;;;13.90;8.75;;;-2.80;99.90;;;;;;6101350;23;20355;-79
2024/01/17 07:48:58;;;;;;;13.02;8.38;;;-2.80;99.90;;;;;;6101051;23;20018;-75
2024/01/17 07:51:24;;;;;;;12.20;7.88;;;-2.80;99.90;;;;;;6123234;23;20489;-77
2024/01/17 07:53:49;;;;;;;11.20;7.63;;;-2.80;99.90;;;;;;6123166;23;20017;-77
2024/01/17 07:56:15;;;;;;;12.55;8.60;;;-2.80;99.90;;;;;;6123861;23;20097;-77
2024/01/17 07:58:41;;;;;;;11.60;7.00;;;-2.80;99.90;;;;;;6099659;23;20400;-77
2024/01/17 08:01:06;;;;;;;12.88;7.70;;;-2.80;99.90;;;;;;6126747;23;20010;-78
2024/01/17 08:03:32;;;;;;;20.13;8.80;;;-2.70;99.90;;;;;;6106096;23;20010;-78
2024/01/17 08:05:58;;;;;;;17.80;8.98;;;-2.70;99.90;;;;;;6102941;23;20014;-78
2024/01/17 08:08:23;;;;;;;17.05;8.77;;;-2.80;99.90;;;;;;6125552;23;20025;-80
2024/01/17 08:10:49;;;;;;;13.75;7.68;;;-2.70;99.90;;;;;;6125960;23;20010;-80
2024/01/17 08:13:14;;;;;;;17.02;7.95;;;-2.80;99.90;;;;;;6125520;23;20053;-78
2024/01/17 08:15:41;;;;;;;11.95;7.68;;;-2.70;99.90;;;;;;6126652;23;20021;-78
2024/01/17 08:18:08;;;;;;;14.30;7.93;;;-2.70;99.90;;;;;;6123837;23;20047;-77
2024/01/17 08:20:34;;;;;;;12.68;7.28;;;-2.70;99.90;;;;;;6122141;23;20014;-77
2024/01/17 08:22:59;;;;;;;22.02;19.77;;;-2.70;99.90;;;;;;6098327;23;20447;-77
2024/01/17 08:25:26;;;;;;;16.67;8.48;;;-2.60;99.90;;;;;;6098413;23;20021;-77
2024/01/17 08:27:54;;;;;;;11.73;7.35;;;-2.60;99.90;;;;;;6122242;23;20055;-77
2024/01/17 08:30:19;;;;;;;12.73;8.13;;;-2.50;99.90;;;;;;6098380;23;20021;-77
2024/01/17 08:32:45;;;;;;;14.18;8.65;;;-2.50;99.90;;;;;;6122908;23;20014;-77
2024/01/17 08:35:11;;;;;;;13.20;8.13;;;-2.50;99.90;;;;;;6122560;23;20011;-77
2024/01/17 08:37:37;;;;;;;11.00;7.97;;;-2.40;99.90;;;;;;6122349;23;20018;-77
2024/01/17 08:40:03;;;;;;;13.32;7.78;;;-2.40;99.90;;;;;;6122527;23;20283;-77
2024/01/17 08:42:28;;;;;;;13.02;8.13;;;-2.40;99.90;;;;;;6123003;23;20069;-77
2024/01/17 08:44:54;;;;;;;14.15;9.43;;;-2.30;99.90;;;;;;6100700;23;20018;-78
2024/01/17 08:47:19;;;;;;;16.52;9.18;;;-2.30;99.90;;;;;;6098463;23;20025;-77
2024/01/17 08:49:45;;;;;;;13.95;7.95;;;-2.30;99.90;;;;;;6122607;23;20017;-77
2024/01/17 08:52:10;;;;;;;12.98;8.38;;;-2.20;99.90;;;;;;6098546;23;20025;-78
2024/01/17 08:54:36;;;;;;;17.23;9.10;;;-2.20;99.90;;;;;;6122778;23;20010;-77
2024/01/17 08:57:02;;;;;;;14.70;9.57;;;-2.10;99.90;;;;;;6123430;23;20017;-78
2024/01/17 08:59:28;;;;;;;13.75;8.60;;;-2.10;99.90;;;;;;6098602;23;20010;-77
2024/01/17 09:01:56;;;;;;;15.15;8.75;;;-2.00;99.90;;;;;;6122796;23;20020;-77
2024/01/17 09:04:23;;;;;;;13.20;8.60;;;-2.00;99.90;;;;;;6123531;23;20009;-79
2024/01/17 09:06:49;;;;;;;15.88;9.00;;;-1.90;99.90;;;;;;6128081;23;20510;-78
2024/01/17 09:09:15;;;;;;;15.40;8.82;;;-1.90;99.90;;;;;;6104235;23;20017;-78
2024/01/17 09:11:41;;;;;;;19.33;9.70;;;-1.80;99.90;;;;;;6105521;23;20017;-78
2024/01/17 09:14:07;;;;;;;13.35;7.82;;;-1.80;99.90;;;;;;6131230;23;20089;-78
2024/01/17 09:16:33;;;;;;;22.80;20.52;;;-1.70;99.90;;;;;;6131101;23;20089;-78
2024/01/17 09:18:59;;;;;;;11.90;8.27;;;-1.60;99.90;;;;;;6129116;23;20006;-78
2024/01/17 09:21:25;;;;;;;16.65;9.23;;;-1.60;99.90;;;;;;6127817;23;20089;-78
2024/01/17 09:23:51;;;;;;;13.90;8.07;;;-1.60;99.90;;;;;;6126817;23;20017;-78
2024/01/17 09:26:16;;;;;;;21.08;19.08;;;-1.50;99.90;;;;;;6126107;23;20033;-78
2024/01/17 09:28:42;;;;;;;13.55;8.43;;;-1.40;99.90;;;;;;6126272;23;20525;-78
2024/01/17 09:31:08;;;;;;;12.75;8.77;;;-1.40;99.90;;;;;;6126916;23;20486;-78
2024/01/17 09:33:35;;;;;;;12.95;8.45;;;-1.30;99.90;;;;;;6125614;23;20014;-78
2024/01/17 09:36:01;;;;;;;12.32;8.32;;;-1.30;99.90;;;;;;6125614;23;20018;-78
2024/01/17 09:38:26;;;;;;;12.23;8.43;;;-1.30;99.90;;;;;;6102623;23;20013;-79
2024/01/17 09:40:53;;;;;;;13.70;8.43;;;-1.30;99.90;;;;;;6126670;23;20069;-79
2024/01/17 09:43:18;;;;;;;20.25;18.23;;;-1.20;99.90;;;;;;6127077;23;20017;-79
2024/01/17 09:45:45;;;;;;;14.10;8.30;;;-1.20;99.90;;;;;;6126187;23;20010;-79
2024/01/17 09:48:14;;;;;;;14.88;8.32;;;-1.10;99.90;;;;;;6125657;23;20021;-79
2024/01/17 09:50:40;;;;;;;20.60;18.42;;;-1.10;99.90;;;;;;6126575;23;20427;-79
2024/01/17 09:53:12;;;;;;;13.63;7.60;;;-0.90;99.90;;;;;;6102244;23;20065;-79
2024/01/17 09:55:38;;;;;;;11.18;7.28;;;-0.90;99.90;;;;;;6126252;23;20092;-79
2024/01/17 09:58:05;;;;;;;12.30;7.32;;;-0.90;99.90;;;;;;6127167;23;20053;-79
2024/01/17 10:00:34;;;;;;;10.80;7.15;;;-0.90;99.90;;;;;;6127271;23;20010;-79
2024/01/17 10:03:02;;;;;;;15.05;8.18;;;-0.90;99.90;;;;;;6126943;23;20195;-79
2024/01/17 10:05:30;;;;;;;18.95;16.95;;;-0.90;99.90;;;;;;6103083;23;20018;-79
2024/01/17 10:07:58;;;;;;;20.45;18.55;;;-0.80;99.90;;;;;;6126949;23;20383;-79
2024/01/17 10:10:24;;;;;;;16.02;8.63;;;-0.70;99.90;;;;;;6103137;23;20024;-79
2024/01/17 10:12:51;;;;;;;12.15;7.57;;;-0.70;99.90;;;;;;6127604;23;20057;-79
2024/01/17 10:15:17;;;;;;;18.85;17.05;;;-0.70;99.90;;;;;;6103238;23;20339;-79
2024/01/17 10:17:43;;;;;;;18.50;16.70;;;-0.60;99.90;;;;;;6127577;23;20029;-79
2024/01/17 10:20:09;;;;;;;12.98;7.90;;;-0.50;99.90;;;;;;6127816;23;20010;-80
2024/01/17 10:22:35;;;;;;;10.38;7.43;;;-0.50;99.90;;;;;;6103367;23;20023;-79
2024/01/17 10:25:02;;;;;;;14.38;9.02;;;-0.50;99.90;;;;;;6127333;23;20014;-79
2024/01/17 10:27:28;;;;;;;13.52;8.15;;;-0.50;99.90;;;;;;6127563;23;20084;-79
2024/01/17 10:29:55;;;;;;;18.45;16.60;;;-0.50;99.90;;;;;;6128114;23;20018;-79
2024/01/17 10:32:21;;;;;;;18.98;17.25;;;-0.40;99.90;;;;;;6128675;23;20091;-79
2024/01/17 10:34:46;;;;;;;18.80;16.98;;;-0.40;99.90;;;;;;6128979;23;20009;-79
2024/01/17 10:37:14;;;;;;;16.35;8.40;;;-0.30;99.90;;;;;;6128107;23;20020;-79
2024/01/17 10:39:40;;;;;;;12.23;7.80;;;-0.30;99.90;;;;;;6129101;23;20006;-79
2024/01/17 10:42:17;;;;;;;10.30;7.07;;;-0.30;99.90;;;;;;6104370;23;20014;-79
2024/01/17 10:44:42;;;;;;;13.40;7.45;;;-0.20;99.90;;;;;;6129870;23;20018;-79
2024/01/17 10:47:08;;;;;;;11.05;6.93;;;-0.20;99.90;;;;;;6129123;23;20029;-79
2024/01/17 10:49:33;;;;;;;11.18;6.97;;;-0.10;99.90;;;;;;6129540;23;20014;-79
2024/01/17 10:52:11;;;;;;;17.70;15.60;;;-0.10;99.90;;;;;;6129769;23;20017;-79
2024/01/17 10:54:49;;;;;;;16.92;15.43;;;0.00;99.90;;;;;;6130663;23;20021;-79
2024/01/17 10:57:18;;;;;;;17.58;15.77;;;0.00;99.90;;;;;;6130494;23;20078;-79
2024/01/17 10:59:48;;;;;;;17.23;15.57;;;0.10;99.90;;;;;;6129742;23;20014;-79
2024/01/17 11:02:22;;;;;;;12.27;7.63;;;0.10;99.90;;;;;;6130931;23;20411;-79
2024/01/17 11:05:06;;;;;;;10.45;7.00;;;0.10;99.90;;;;;;6129352;23;20386;-79
2024/01/17 11:07:33;;;;;;;11.05;6.68;;;0.10;99.90;;;;;;6130890;23;20049;-79
2024/01/17 11:10:03;;;;;;;17.10;14.85;;;0.10;99.90;;;;;;6130919;23;20014;-78
2024/01/17 11:12:32;;;;;;;19.30;15.77;;;0.10;99.90;;;;;;6106650;23;20018;-79
2024/01/17 11:15:00;;;;;;;10.38;6.78;;;0.10;99.90;;;;;;6132123;23;20018;-79
2024/01/17 11:17:28;;;;;;;16.77;15.13;;;0.10;99.90;;;;;;6131927;23;20527;-79
2024/01/17 11:19:55;;;;;;;16.40;14.80;;;0.10;99.90;;;;;;6108761;23;20013;-79
2024/01/17 11:22:21;;;;;;;13.95;6.82;;;0.20;99.90;;;;;;6135107;23;20014;-79
2024/01/17 11:25:15;;;;;;;13.68;7.30;;;0.20;99.90;;;;;;6131493;23;20014;-81
2024/01/17 11:27:55;;;;;;;11.90;7.05;;;0.20;99.90;;;;;;6110681;23;20397;-76
2024/01/17 11:30:46;;;;;;;17.20;15.40;;;0.20;99.90;;;;;;6128442;23;20013;-76
2024/01/17 11:33:13;;;;;;;17.38;15.60;;;0.30;99.90;;;;;;6127793;23;20064;-77
2024/01/17 11:35:49;;;;;;;15.27;13.90;;;0.30;99.90;;;;;;6127314;23;20013;-75
2024/01/17 11:38:24;;;;;;;17.08;15.43;;;0.50;99.90;;;;;;6109524;23;20014;-75
2024/01/17 11:40:57;;;;;;;16.77;15.07;;;0.50;99.90;;;;;;6122969;23;20014;-75
2024/01/17 11:43:31;;;;;;;9.93;7.22;;;0.40;99.90;;;;;;6097967;23;20093;-75
2024/01/17 11:45:59;;;;;;;16.98;15.38;;;0.50;99.90;;;;;;6122695;23;20383;-74
2024/01/17 11:48:29;;;;;;;15.80;14.40;;;0.50;99.90;;;;;;6122321;23;20445;-75
2024/01/17 11:51:04;;;;;;;16.40;14.55;;;0.50;99.90;;;;;;6098480;23;20068;-75
2024/01/17 11:53:31;;;;;;;11.95;7.13;;;0.50;99.90;;;;;;6097889;23;20021;-75
2024/01/17 11:55:58;;;;;;;10.68;7.45;;;0.50;99.90;;;;;;6122759;23;20010;-75
2024/01/17 11:58:47;;;;;;;14.60;13.20;;;0.50;99.90;;;;;;6123492;23;20350;-75
2024/01/17 12:01:26;;;;;;;16.83;15.02;;;0.50;99.90;;;;;;6122302;23;20038;-76
2024/01/17 12:03:52;;;;;;;15.57;14.02;;;0.60;99.90;;;;;;6121908;23;20458;-77
2024/01/17 12:06:21;;;;;;;16.48;14.77;;;0.60;99.90;;;;;;6099412;23;20014;-76
2024/01/17 12:08:49;;;;;;;13.15;7.50;;;0.60;99.90;;;;;;6099206;23;20014;-76
2024/01/17 12:11:15;;;;;;;17.15;15.45;;;0.60;99.90;;;;;;6122203;23;20080;-76
2024/01/17 12:13:41;;;;;;;15.27;13.75;;;0.60;99.90;;;;;;6099516;23;20127;-75
2024/01/17 12:16:07;;;;;;;15.95;14.35;;;0.70;99.90;;;;;;6097820;23;20464;-76
2024/01/17 12:18:35;;;;;;;16.40;14.70;;;0.70;99.90;;;;;;6099110;23;20402;-75
2024/01/17 12:21:04;;;;;;;15.25;13.75;;;0.70;99.90;;;;;;6099495;23;20014;-75
2024/01/17 12:23:34;;;;;;;15.93;14.30;;;0.70;99.90;;;;;;6098904;23;20033;-75
2024/01/17 12:26:00;;;;;;;15.00;13.50;;;0.70;99.90;;;;;;6098599;23;20045;-75
2024/01/17 12:28:28;;;;;;;16.90;15.27;;;0.70;99.90;;;;;;6098622;23;20014;-74
2024/01/17 12:31:02;;;;;;;16.50;14.82;;;0.70;99.90;;;;;;6097863;23;20239;-75